Bolu, Turkey
Current Conditions -  °F | °C
As of 3:50 PM on Friday 28 Nov 2014 (Local Time) from LTBQ Reporting Station
Scattered Clouds Scattered Clouds  
Wind Chill: 13°   Ceiling: Unl
Heat Index: 13°   Visibility: 5mi
Dew Point:   Wind: 2mph
Humidity: 58%   Direction: 160°SSE
Pressure: 30.27"   Gusts: NA
Location:  40.75°N, 31.61°E
Report Text: LTBQ 281250Z 16002KT 8000 SCT035 SCT080 13/05 Q1025 NOSIG
Loading
Personal Weather Stations






























Interactive Weather Map New forecast layout! Learn more

10-Day Weather Forecast

Advertisements
Track Severe Weather on mobile